createdAt,value
2018-09-14T00:00:53.885Z,15.40
2018-09-14T00:03:22.213Z,15.30
2018-09-14T00:05:50.528Z,15.30
2018-09-14T00:08:18.869Z,15.30
2018-09-14T00:10:47.190Z,15.30
2018-09-14T00:13:15.512Z,15.30
2018-09-14T00:15:43.818Z,15.30
2018-09-14T00:18:12.145Z,15.30
2018-09-14T00:20:40.468Z,15.30
2018-09-14T00:23:08.813Z,15.30
2018-09-14T00:25:37.123Z,15.30
2018-09-14T00:28:05.480Z,15.30
2018-09-14T00:30:33.786Z,15.20
2018-09-14T00:33:02.116Z,15.30
2018-09-14T00:35:30.426Z,15.20
2018-09-14T00:37:58.754Z,15.20
2018-09-14T00:40:27.080Z,15.20
2018-09-14T00:42:55.421Z,15.20
2018-09-14T00:45:23.731Z,15.20
2018-09-14T00:47:52.070Z,15.20
2018-09-14T00:50:20.381Z,15.20
2018-09-14T00:52:48.701Z,15.20
2018-09-14T00:55:17.035Z,15.20
2018-09-14T00:57:45.370Z,15.20
2018-09-14T01:00:20.224Z,15.20
2018-09-14T01:02:48.554Z,15.20
2018-09-14T01:07:51.648Z,15.10
2018-09-14T01:10:19.996Z,15.10
2018-09-14T01:12:48.333Z,15.10
2018-09-14T01:15:16.645Z,15.10
2018-09-14T01:17:44.975Z,15.10
2018-09-14T01:20:13.340Z,15.10
2018-09-14T01:22:41.650Z,15.10
2018-09-14T01:25:09.970Z,15.10
2018-09-14T01:27:38.311Z,15.10
2018-09-14T01:30:06.917Z,15.10
2018-09-14T01:32:35.248Z,15.10
2018-09-14T01:35:07.805Z,15.10
2018-09-14T01:37:36.141Z,15.10
2018-09-14T01:40:04.542Z,15.10
2018-09-14T01:42:32.881Z,15.10
2018-09-14T01:45:01.201Z,15.10
2018-09-14T01:47:29.536Z,15.10
2018-09-14T01:49:57.852Z,15.10
2018-09-14T01:52:26.181Z,15.10
2018-09-14T01:54:54.513Z,15.10
2018-09-14T01:57:22.894Z,15.10
2018-09-14T01:59:51.227Z,15.10
2018-09-14T02:02:19.605Z,15.10
2018-09-14T02:04:47.921Z,15.10
2018-09-14T02:07:16.269Z,15.10
2018-09-14T02:09:44.596Z,15.10
2018-09-14T02:12:12.969Z,15.10
2018-09-14T02:14:41.310Z,15.10
2018-09-14T02:17:09.663Z,15.10
2018-09-14T02:19:38.035Z,15.00
2018-09-14T02:22:06.439Z,15.00
2018-09-14T02:24:34.858Z,15.00
2018-09-14T02:27:03.211Z,15.00
2018-09-14T02:29:31.573Z,15.00
2018-09-14T02:31:59.902Z,15.00
2018-09-14T02:34:28.264Z,15.00
2018-09-14T02:36:56.596Z,15.00
2018-09-14T02:39:24.968Z,15.00
2018-09-14T02:41:53.315Z,15.00
2018-09-14T02:44:21.685Z,15.00
2018-09-14T02:46:50.025Z,15.00
2018-09-14T02:49:18.391Z,14.90
2018-09-14T02:51:46.718Z,14.90
2018-09-14T02:54:15.089Z,14.90
2018-09-14T02:56:43.422Z,14.90
2018-09-14T03:01:46.543Z,14.90
2018-09-14T03:04:14.915Z,14.90
2018-09-14T03:06:43.264Z,14.90
2018-09-14T03:09:11.627Z,14.90
2018-09-14T03:11:39.969Z,14.80
2018-09-14T03:14:08.451Z,14.80
2018-09-14T03:16:36.837Z,14.80
2018-09-14T03:19:05.307Z,14.80
2018-09-14T03:21:33.630Z,14.80
2018-09-14T03:24:01.974Z,14.80
2018-09-14T03:26:30.300Z,14.80
2018-09-14T03:28:58.646Z,14.80
2018-09-14T03:31:26.980Z,14.70
2018-09-14T03:33:55.345Z,14.70
2018-09-14T03:36:23.695Z,14.70
2018-09-14T03:38:52.049Z,14.70
2018-09-14T03:41:20.378Z,14.70
2018-09-14T03:43:48.722Z,14.70
2018-09-14T03:46:17.045Z,14.70
2018-09-14T03:48:45.397Z,14.70
2018-09-14T03:51:13.734Z,14.70
2018-09-14T03:53:42.098Z,14.70
2018-09-14T03:56:10.423Z,14.70
2018-09-14T03:58:38.769Z,14.70
2018-09-14T04:01:07.241Z,14.70
2018-09-14T04:03:35.588Z,14.70
2018-09-14T04:06:03.919Z,14.70
2018-09-14T04:08:32.267Z,14.70
2018-09-14T04:11:00.616Z,14.70
2018-09-14T04:13:28.962Z,14.70
2018-09-14T04:15:57.306Z,14.70
2018-09-14T04:18:25.669Z,14.60
2018-09-14T04:20:54.091Z,14.60
2018-09-14T04:23:22.482Z,14.60
2018-09-14T04:25:50.817Z,14.60
2018-09-14T04:28:19.202Z,14.60
2018-09-14T04:30:47.561Z,14.60
2018-09-14T04:33:15.892Z,14.60
2018-09-14T04:35:44.262Z,14.60
2018-09-14T04:38:12.646Z,14.60
2018-09-14T04:40:40.978Z,14.60
2018-09-14T04:43:09.306Z,14.60
2018-09-14T04:45:37.652Z,14.60
2018-09-14T04:48:05.980Z,14.60
2018-09-14T04:50:34.343Z,14.60
2018-09-14T04:53:02.677Z,14.60
2018-09-14T04:55:31.035Z,14.60
2018-09-14T04:57:59.377Z,14.60
2018-09-14T05:00:27.727Z,14.60
2018-09-14T05:02:56.045Z,14.60
2018-09-14T05:05:24.394Z,14.60
2018-09-14T05:07:52.737Z,14.60
2018-09-14T05:10:21.102Z,14.60
2018-09-14T05:12:49.421Z,14.60
2018-09-14T05:15:17.761Z,14.60
2018-09-14T05:17:46.087Z,14.60
2018-09-14T05:20:14.443Z,14.60
2018-09-14T05:22:42.770Z,14.60
2018-09-14T05:25:11.160Z,14.60
2018-09-14T05:27:39.486Z,14.60
2018-09-14T05:30:07.825Z,14.60
2018-09-14T05:32:36.149Z,14.60
2018-09-14T05:35:04.542Z,14.60
2018-09-14T05:37:32.990Z,14.60
2018-09-14T05:40:01.332Z,14.60
2018-09-14T05:42:29.646Z,14.60
2018-09-14T05:44:57.999Z,14.60
2018-09-14T05:47:26.422Z,14.60
2018-09-14T05:49:54.778Z,14.60
2018-09-14T05:52:23.103Z,14.70
2018-09-14T05:54:51.453Z,14.70
2018-09-14T05:57:19.823Z,14.70
2018-09-14T05:59:48.171Z,14.70
2018-09-14T06:02:16.497Z,14.70
2018-09-14T06:04:44.846Z,14.70
2018-09-14T06:07:13.170Z,14.70
2018-09-14T06:09:41.510Z,14.70
2018-09-14T06:12:09.869Z,14.70
2018-09-14T06:14:38.217Z,14.70
2018-09-14T06:17:06.703Z,14.70
2018-09-14T06:19:35.081Z,14.70
2018-09-14T06:22:03.421Z,14.70
2018-09-14T06:24:31.831Z,14.80
2018-09-14T06:27:00.158Z,14.80
2018-09-14T06:29:28.497Z,14.70
2018-09-14T06:31:56.865Z,14.80
2018-09-14T06:34:25.230Z,14.80
2018-09-14T06:36:53.567Z,14.80
2018-09-14T06:39:21.925Z,14.80
2018-09-14T06:41:50.266Z,14.90
2018-09-14T06:44:18.610Z,14.90
2018-09-14T06:46:46.947Z,14.90
2018-09-14T06:49:15.348Z,14.90
2018-09-14T06:51:43.684Z,15.00
2018-09-14T06:54:12.039Z,15.00
2018-09-14T06:56:40.374Z,15.10
2018-09-14T06:59:08.842Z,15.10
2018-09-14T07:01:37.195Z,15.10
2018-09-14T07:04:05.562Z,15.10
2018-09-14T07:06:33.958Z,15.10
2018-09-14T07:09:02.285Z,15.20
2018-09-14T07:11:30.667Z,15.20
2018-09-14T07:13:59.026Z,15.20
2018-09-14T07:16:27.350Z,15.30
2018-09-14T07:18:55.705Z,15.30
2018-09-14T07:21:24.038Z,15.30
2018-09-14T07:23:52.403Z,15.40
2018-09-14T07:26:20.751Z,15.40
2018-09-14T07:28:49.505Z,15.40
2018-09-14T07:31:17.748Z,15.40
2018-09-14T07:33:46.106Z,15.40
2018-09-14T07:36:14.434Z,15.50
2018-09-14T07:38:43.090Z,15.50
2018-09-14T07:41:11.439Z,15.50
2018-09-14T07:43:39.766Z,15.60
2018-09-14T07:46:08.118Z,15.60
2018-09-14T07:48:36.438Z,15.60
2018-09-14T07:51:04.800Z,15.60
2018-09-14T07:53:33.962Z,15.60
2018-09-14T07:56:02.303Z,15.60
2018-09-14T07:58:30.637Z,15.70
2018-09-14T08:00:59.000Z,15.70
2018-09-14T08:03:27.345Z,15.70
2018-09-14T08:05:55.695Z,15.70
2018-09-14T08:08:24.046Z,15.70
2018-09-14T08:10:52.422Z,15.70
2018-09-14T08:13:20.827Z,15.80
2018-09-14T08:15:49.153Z,15.80
2018-09-14T08:18:17.485Z,15.80
2018-09-14T08:20:45.847Z,15.90
2018-09-14T08:23:14.195Z,15.90
2018-09-14T08:25:42.534Z,15.90
2018-09-14T08:28:10.879Z,16.00
2018-09-14T08:30:39.233Z,16.00
2018-09-14T08:33:07.550Z,16.10
2018-09-14T08:35:35.915Z,16.10
2018-09-14T08:38:04.246Z,16.10
2018-09-14T08:40:32.594Z,16.20
2018-09-14T08:43:00.935Z,16.30
2018-09-14T08:45:29.305Z,16.40
2018-09-14T08:47:57.751Z,16.40
2018-09-14T08:50:26.023Z,16.50
2018-09-14T08:52:54.391Z,16.60
2018-09-14T08:55:22.754Z,16.70
2018-09-14T08:57:51.098Z,16.70
2018-09-14T09:00:24.319Z,16.80
2018-09-14T09:02:53.490Z,16.90
2018-09-14T09:05:22.294Z,16.90
2018-09-14T09:07:50.877Z,17.00
2018-09-14T09:10:19.270Z,17.00
2018-09-14T09:12:47.988Z,17.00
2018-09-14T09:15:16.348Z,17.10
2018-09-14T09:17:44.718Z,17.10
2018-09-14T09:20:13.087Z,17.20
2018-09-14T09:22:41.412Z,17.30
2018-09-14T09:25:09.762Z,17.30
2018-09-14T09:27:38.095Z,17.40
2018-09-14T09:30:06.490Z,17.40
2018-09-14T09:32:34.808Z,17.50
2018-09-14T09:35:03.151Z,17.60
2018-09-14T09:37:31.483Z,17.60
2018-09-14T09:39:59.833Z,17.70
2018-09-14T09:42:28.156Z,17.70
2018-09-14T09:44:56.577Z,17.70
2018-09-14T09:47:24.902Z,17.80
2018-09-14T09:49:53.250Z,17.80
2018-09-14T09:52:21.583Z,17.90
2018-09-14T09:54:49.947Z,17.90
2018-09-14T09:57:18.287Z,17.90
2018-09-14T09:59:46.620Z,18.00
2018-09-14T10:02:20.284Z,18.10
2018-09-14T10:04:53.970Z,18.10
2018-09-14T10:07:25.535Z,18.20
2018-09-14T10:09:54.100Z,18.20
2018-09-14T10:12:22.600Z,18.30
2018-09-14T10:14:50.977Z,18.30
2018-09-14T10:17:19.343Z,18.30
2018-09-14T10:19:47.879Z,18.40
2018-09-14T10:22:16.308Z,18.40
2018-09-14T10:24:44.670Z,18.40
2018-09-14T10:27:13.027Z,18.40
2018-09-14T10:29:41.370Z,18.50
2018-09-14T10:32:09.694Z,18.60
2018-09-14T10:34:38.044Z,18.60
2018-09-14T10:37:06.476Z,18.60
2018-09-14T10:39:34.790Z,18.70
2018-09-14T10:42:03.143Z,18.70
2018-09-14T10:44:31.489Z,18.80
2018-09-14T10:46:59.814Z,18.80
2018-09-14T10:49:28.166Z,18.90
2018-09-14T10:51:56.503Z,19.00
2018-09-14T10:54:31.381Z,19.00
2018-09-14T10:56:59.731Z,19.10
2018-09-14T10:59:28.116Z,19.20
2018-09-14T11:01:56.459Z,19.30
2018-09-14T11:04:24.845Z,19.30
2018-09-14T11:06:53.247Z,19.50
2018-09-14T11:09:21.564Z,19.60
2018-09-14T11:11:49.891Z,19.60
2018-09-14T11:14:18.238Z,19.70
2018-09-14T11:16:46.565Z,19.80
2018-09-14T11:19:14.906Z,19.90
2018-09-14T11:21:43.598Z,20.10
2018-09-14T11:24:11.959Z,20.30
2018-09-14T11:26:40.287Z,20.40
2018-09-14T11:29:08.642Z,20.40
2018-09-14T11:31:37.001Z,20.50
2018-09-14T11:34:05.387Z,20.50
2018-09-14T11:36:33.727Z,20.50
2018-09-14T11:39:02.084Z,20.60
2018-09-14T11:44:05.193Z,20.70
2018-09-14T11:46:33.546Z,20.70
2018-09-14T11:49:01.903Z,20.70
2018-09-14T11:51:30.247Z,20.60
2018-09-14T11:53:58.606Z,20.60
2018-09-14T11:56:26.923Z,20.70
2018-09-14T11:58:55.273Z,20.70
2018-09-14T12:01:23.626Z,20.80
2018-09-14T12:03:52.016Z,20.90
2018-09-14T12:06:20.373Z,20.90
2018-09-14T12:08:48.721Z,20.90
2018-09-14T12:11:17.222Z,21.00
2018-09-14T12:13:45.765Z,21.00
2018-09-14T12:16:14.022Z,21.10
2018-09-14T12:18:42.422Z,21.10
2018-09-14T12:21:10.758Z,21.10
2018-09-14T12:23:45.912Z,21.10
2018-09-14T12:26:14.254Z,21.20
2018-09-14T12:28:42.603Z,21.30
2018-09-14T12:31:10.958Z,21.40
2018-09-14T12:33:39.278Z,21.60
2018-09-14T12:36:07.631Z,21.80
2018-09-14T12:38:35.970Z,21.80
2018-09-14T12:41:04.325Z,21.80
2018-09-14T12:43:32.830Z,21.90
2018-09-14T12:46:01.206Z,21.90
2018-09-14T12:48:29.563Z,21.90
2018-09-14T12:50:57.902Z,22.00
2018-09-14T12:53:26.222Z,22.10
2018-09-14T12:55:54.570Z,22.10
2018-09-14T12:58:22.911Z,22.10
2018-09-14T13:00:51.310Z,22.10
2018-09-14T13:03:19.637Z,22.10
2018-09-14T13:05:48.093Z,22.00
2018-09-14T13:08:16.434Z,21.90
2018-09-14T13:10:44.773Z,21.80
2018-09-14T13:13:13.097Z,21.80
2018-09-14T13:15:41.441Z,21.80
2018-09-14T13:18:09.763Z,21.90
2018-09-14T13:20:38.123Z,21.90
2018-09-14T13:23:06.447Z,22.00
2018-09-14T13:25:34.790Z,22.00
2018-09-14T13:28:03.201Z,22.00
2018-09-14T13:30:31.606Z,22.00
2018-09-14T13:32:59.926Z,22.00
2018-09-14T13:35:28.269Z,22.10
2018-09-14T13:37:56.599Z,22.10
2018-09-14T13:40:24.951Z,22.20
2018-09-14T13:42:53.295Z,22.20
2018-09-14T13:45:21.666Z,22.20
2018-09-14T13:47:50.000Z,22.30
2018-09-14T13:50:18.348Z,22.30
2018-09-14T13:52:46.677Z,22.30
2018-09-14T13:55:15.047Z,22.30
2018-09-14T13:57:43.374Z,22.30
2018-09-14T14:00:11.763Z,22.30
2018-09-14T14:02:40.105Z,22.30
2018-09-14T14:05:08.453Z,22.30
2018-09-14T14:07:36.786Z,22.30
2018-09-14T14:10:05.162Z,22.30
2018-09-14T14:12:33.494Z,22.30
2018-09-14T14:15:01.855Z,22.30
2018-09-14T14:17:30.457Z,22.30
2018-09-14T14:19:58.670Z,22.30
2018-09-14T14:22:26.993Z,22.20
2018-09-14T14:24:55.352Z,22.20
2018-09-14T14:27:23.682Z,22.10
2018-09-14T14:29:52.009Z,22.20
2018-09-14T14:32:20.397Z,22.10
2018-09-14T14:34:48.734Z,22.10
2018-09-14T14:37:17.075Z,22.10
2018-09-14T14:39:45.427Z,22.10
2018-09-14T14:42:13.776Z,22.20
2018-09-14T14:44:42.093Z,22.20
2018-09-14T14:47:10.515Z,22.30
2018-09-14T14:49:38.873Z,22.30
2018-09-14T14:52:07.219Z,22.40
2018-09-14T14:54:35.542Z,22.40
2018-09-14T14:57:03.887Z,22.40
2018-09-14T14:59:32.268Z,22.40
2018-09-14T15:02:00.625Z,22.30
2018-09-14T15:04:28.949Z,22.30
2018-09-14T15:06:57.298Z,22.20
2018-09-14T15:09:25.634Z,22.10
2018-09-14T15:11:53.981Z,22.20
2018-09-14T15:14:22.308Z,22.10
2018-09-14T15:16:50.661Z,22.10
2018-09-14T15:19:19.053Z,22.10
2018-09-14T15:21:47.378Z,22.10
2018-09-14T15:24:15.717Z,22.10
2018-09-14T15:26:44.080Z,22.10
2018-09-14T15:29:12.410Z,22.00
2018-09-14T15:31:40.758Z,22.00
2018-09-14T15:34:09.093Z,22.00
2018-09-14T15:36:37.430Z,22.00
2018-09-14T15:39:09.012Z,22.00
2018-09-14T15:41:37.362Z,21.90
2018-09-14T15:44:05.707Z,21.90
2018-09-14T15:46:34.059Z,21.80
2018-09-14T15:49:02.462Z,21.80
2018-09-14T15:51:30.925Z,21.80
2018-09-14T15:53:59.261Z,21.80
2018-09-14T15:56:27.606Z,21.70
2018-09-14T15:58:56.075Z,21.70
2018-09-14T16:01:24.487Z,21.70
2018-09-14T16:03:52.790Z,21.70
2018-09-14T16:06:21.155Z,21.60
2018-09-14T16:08:49.483Z,21.50
2018-09-14T16:11:17.877Z,21.50
2018-09-14T16:13:46.238Z,21.50
2018-09-14T16:16:14.579Z,21.40
2018-09-14T16:18:42.915Z,21.40
2018-09-14T16:21:11.259Z,21.40
2018-09-14T16:23:39.598Z,21.30
2018-09-14T16:26:07.950Z,21.20
2018-09-14T16:28:36.283Z,21.20
2018-09-14T16:31:04.627Z,21.20
2018-09-14T16:33:32.949Z,21.10
2018-09-14T16:36:01.285Z,21.10
2018-09-14T16:38:29.622Z,21.10
2018-09-14T16:40:57.954Z,21.10
2018-09-14T16:43:26.294Z,21.10
2018-09-14T16:45:54.633Z,21.00
2018-09-14T16:48:22.974Z,21.00
2018-09-14T16:50:51.303Z,21.00
2018-09-14T16:53:26.511Z,20.90
2018-09-14T16:55:54.843Z,20.90
2018-09-14T16:58:23.196Z,20.80
2018-09-14T17:00:51.849Z,20.80
2018-09-14T17:03:20.194Z,20.70
2018-09-14T17:05:48.541Z,20.60
2018-09-14T17:08:16.892Z,20.60
2018-09-14T17:10:45.218Z,20.50
2018-09-14T17:13:13.562Z,20.50
2018-09-14T17:15:41.897Z,20.40
2018-09-14T17:18:10.256Z,20.40
2018-09-14T17:20:38.606Z,20.30
2018-09-14T17:23:06.952Z,20.30
2018-09-14T17:25:35.280Z,20.20
2018-09-14T17:28:03.630Z,20.20
2018-09-14T17:30:31.961Z,20.10
2018-09-14T17:33:00.342Z,20.10
2018-09-14T17:35:28.755Z,20.00
2018-09-14T17:37:57.077Z,19.90
2018-09-14T17:40:25.410Z,19.90
2018-09-14T17:42:53.761Z,19.80
2018-09-14T17:45:22.082Z,19.70
2018-09-14T17:47:50.456Z,19.70
2018-09-14T17:50:18.781Z,19.70
2018-09-14T17:52:47.126Z,19.60
2018-09-14T17:55:15.467Z,19.60
2018-09-14T17:57:43.818Z,19.50
2018-09-14T18:00:12.166Z,19.50
2018-09-14T18:02:40.514Z,19.50
2018-09-14T18:05:08.849Z,19.40
2018-09-14T18:07:37.190Z,19.40
2018-09-14T18:10:05.694Z,19.40
2018-09-14T18:12:34.039Z,19.30
2018-09-14T18:15:02.365Z,19.30
2018-09-14T18:17:30.708Z,19.30
2018-09-14T18:19:59.026Z,19.20
2018-09-14T18:22:27.394Z,19.20
2018-09-14T18:24:55.709Z,19.10
2018-09-14T18:27:24.106Z,19.10
2018-09-14T18:29:52.412Z,19.10
2018-09-14T18:32:20.764Z,19.10
2018-09-14T18:34:49.134Z,19.00
2018-09-14T18:37:17.498Z,19.00
2018-09-14T18:39:45.830Z,19.00
2018-09-14T18:42:14.187Z,18.90
2018-09-14T18:44:42.518Z,18.90
2018-09-14T18:47:10.881Z,18.90
2018-09-14T18:49:39.197Z,18.80
2018-09-14T18:52:07.538Z,18.70
2018-09-14T18:54:35.875Z,18.70
2018-09-14T18:57:04.227Z,18.70
2018-09-14T18:59:32.578Z,18.70
2018-09-14T19:02:00.894Z,18.60
2018-09-14T19:04:29.237Z,18.60
2018-09-14T19:06:57.549Z,18.60
2018-09-14T19:09:25.885Z,18.60
2018-09-14T19:11:54.215Z,18.50
2018-09-14T19:14:22.571Z,18.50
2018-09-14T19:16:57.482Z,18.50
2018-09-14T19:19:25.951Z,18.50
2018-09-14T19:21:54.205Z,18.50
2018-09-14T19:24:22.595Z,18.40
2018-09-14T19:26:50.945Z,18.40
2018-09-14T19:29:19.321Z,18.40
2018-09-14T19:31:47.646Z,18.30
2018-09-14T19:34:15.999Z,18.30
2018-09-14T19:36:44.322Z,18.30
2018-09-14T19:39:13.587Z,18.20
2018-09-14T19:41:41.902Z,18.20
2018-09-14T19:44:10.262Z,18.10
2018-09-14T19:46:38.599Z,18.10
2018-09-14T19:49:06.951Z,18.00
2018-09-14T19:51:35.285Z,18.00
2018-09-14T19:54:03.640Z,18.00
2018-09-14T19:56:31.970Z,17.90
2018-09-14T19:59:00.312Z,17.90
2018-09-14T20:01:28.654Z,17.90
2018-09-14T20:03:56.981Z,17.80
2018-09-14T20:06:25.311Z,17.80
2018-09-14T20:08:53.663Z,17.80
2018-09-14T20:11:22.076Z,17.80
2018-09-14T20:13:50.470Z,17.70
2018-09-14T20:16:19.134Z,17.70
2018-09-14T20:18:47.602Z,17.70
2018-09-14T20:21:24.986Z,17.60
2018-09-14T20:23:53.658Z,17.60
2018-09-14T20:26:21.999Z,17.60
2018-09-14T20:28:50.358Z,17.60
2018-09-14T20:31:18.702Z,17.50
2018-09-14T20:33:47.048Z,17.50
2018-09-14T20:36:15.382Z,17.50
2018-09-14T20:38:43.773Z,17.50
2018-09-14T20:41:12.106Z,17.40
2018-09-14T20:43:40.455Z,17.40
2018-09-14T20:46:08.799Z,17.40
2018-09-14T20:48:37.137Z,17.40
2018-09-14T20:51:05.495Z,17.30
2018-09-14T20:53:33.848Z,17.30
2018-09-14T20:56:02.170Z,17.20
2018-09-14T20:58:30.584Z,17.20
2018-09-14T21:00:58.892Z,17.20
2018-09-14T21:03:27.236Z,17.10
2018-09-14T21:05:55.735Z,17.10
2018-09-14T21:08:24.182Z,17.10
2018-09-14T21:10:52.506Z,17.10
2018-09-14T21:13:20.876Z,17.00
2018-09-14T21:15:49.214Z,17.00
2018-09-14T21:18:17.553Z,17.00
2018-09-14T21:20:45.874Z,17.00
2018-09-14T21:23:14.227Z,16.90
2018-09-14T21:25:42.547Z,16.90
2018-09-14T21:28:10.878Z,16.90
2018-09-14T21:30:39.231Z,16.90
2018-09-14T21:33:07.570Z,16.80
2018-09-14T21:35:35.918Z,16.80
2018-09-14T21:38:04.250Z,16.80
2018-09-14T21:40:32.619Z,16.80
2018-09-14T21:43:00.924Z,16.80
2018-09-14T21:45:29.262Z,16.70
2018-09-14T21:47:57.586Z,16.70
2018-09-14T21:50:25.935Z,16.60
2018-09-14T21:52:54.255Z,16.60
2018-09-14T21:55:22.619Z,16.50
2018-09-14T21:57:50.954Z,16.50
2018-09-14T22:00:24.586Z,16.40
2018-09-14T22:02:53.013Z,16.40
2018-09-14T22:05:21.355Z,16.30
2018-09-14T22:07:49.674Z,16.20
2018-09-14T22:10:18.011Z,16.20
2018-09-14T22:12:46.334Z,16.10
2018-09-14T22:15:14.686Z,16.10
2018-09-14T22:17:43.043Z,16.10
2018-09-14T22:20:11.386Z,16.00
2018-09-14T22:22:39.709Z,15.90
2018-09-14T22:25:08.050Z,15.90
2018-09-14T22:27:36.369Z,15.80
2018-09-14T22:30:05.454Z,15.80
2018-09-14T22:32:33.781Z,15.70
2018-09-14T22:35:02.118Z,15.70
2018-09-14T22:37:30.446Z,15.70
2018-09-14T22:39:58.839Z,15.60
2018-09-14T22:42:27.219Z,15.50
2018-09-14T22:44:55.549Z,15.50
2018-09-14T22:47:23.878Z,15.50
2018-09-14T22:49:52.237Z,15.40
2018-09-14T22:52:20.561Z,15.30
2018-09-14T22:54:48.926Z,15.30
2018-09-14T22:57:17.229Z,15.30
2018-09-14T22:59:45.582Z,15.20
2018-09-14T23:02:13.888Z,15.20
2018-09-14T23:04:42.237Z,15.10
2018-09-14T23:07:10.558Z,15.10
2018-09-14T23:09:38.901Z,15.10
2018-09-14T23:12:07.223Z,15.10
2018-09-14T23:14:35.585Z,15.00
2018-09-14T23:17:03.893Z,15.00
2018-09-14T23:19:32.225Z,15.00
2018-09-14T23:22:00.542Z,14.90
2018-09-14T23:24:28.881Z,14.80
2018-09-14T23:26:57.205Z,14.80
2018-09-14T23:29:25.532Z,14.80
2018-09-14T23:31:53.846Z,14.70
2018-09-14T23:34:22.183Z,14.70
2018-09-14T23:36:50.605Z,14.60
2018-09-14T23:39:18.954Z,14.60
2018-09-14T23:41:47.269Z,14.50
2018-09-14T23:44:15.580Z,14.50
2018-09-14T23:46:43.915Z,14.50
2018-09-14T23:49:12.227Z,14.40
2018-09-14T23:51:40.566Z,14.40
2018-09-14T23:54:08.882Z,14.40
2018-09-14T23:56:37.213Z,14.30
2018-09-14T23:59:05.546Z,14.30
